sensor_id;sensor_type;location;lat;lon;timestamp;P1;durP1;ratioP1;P2;durP2;ratioP2
23402;SDS011;11874;48.228;11.684;2023-07-28T12:38:36;3.53;;;1.90;;
23402;SDS011;11874;48.228;11.684;2023-07-28T12:41:08;2.17;;;1.55;;
23402;SDS011;11874;48.228;11.684;2023-07-28T12:43:37;2.83;;;1.63;;
23402;SDS011;11874;48.228;11.684;2023-07-28T12:46:08;2.60;;;1.63;;
23402;SDS011;11874;48.228;11.684;2023-07-28T12:48:37;2.38;;;1.80;;
23402;SDS011;11874;48.228;11.684;2023-07-28T12:51:08;2.83;;;1.73;;
23402;SDS011;11874;48.228;11.684;2023-07-28T12:53:38;2.08;;;1.60;;
23402;SDS011;11874;48.228;11.684;2023-07-28T12:56:06;3.00;;;2.03;;
23402;SDS011;11874;48.228;11.684;2023-07-28T12:58:34;2.45;;;1.95;;
23402;SDS011;11874;48.228;11.684;2023-07-28T13:01:07;2.15;;;1.60;;
23402;SDS011;11874;48.228;11.684;2023-07-28T13:03:38;2.40;;;1.80;;
23402;SDS011;11874;48.228;11.684;2023-07-28T13:06:06;2.55;;;1.65;;
23402;SDS011;11874;48.228;11.684;2023-07-28T13:08:34;2.13;;;1.92;;
23402;SDS011;11874;48.228;11.684;2023-07-28T13:11:07;2.97;;;2.05;;
23402;SDS011;11874;48.228;11.684;2023-07-28T13:13:40;3.38;;;2.58;;
23402;SDS011;11874;48.228;11.684;2023-07-28T13:16:08;2.67;;;2.10;;
23402;SDS011;11874;48.228;11.684;2023-07-28T13:18:38;2.40;;;2.20;;
23402;SDS011;11874;48.228;11.684;2023-07-28T13:21:07;3.45;;;1.92;;
23402;SDS011;11874;48.228;11.684;2023-07-28T13:23:36;2.13;;;1.85;;
23402;SDS011;11874;48.228;11.684;2023-07-28T13:26:05;3.35;;;2.08;;
23402;SDS011;11874;48.228;11.684;2023-07-28T13:28:34;2.90;;;2.22;;
23402;SDS011;11874;48.228;11.684;2023-07-28T13:31:03;3.22;;;2.00;;
23402;SDS011;11874;48.228;11.684;2023-07-28T13:33:31;2.17;;;1.92;;
23402;SDS011;11874;48.228;11.684;2023-07-28T13:36:03;4.30;;;2.33;;
23402;SDS011;11874;48.228;11.684;2023-07-28T13:41:03;2.17;;;1.90;;
23402;SDS011;11874;48.228;11.684;2023-07-28T13:43:33;2.95;;;1.83;;
23402;SDS011;11874;48.228;11.684;2023-07-28T13:46:03;4.83;;;2.00;;
23402;SDS011;11874;48.228;11.684;2023-07-28T13:48:36;2.55;;;1.90;;
23402;SDS011;11874;48.228;11.684;2023-07-28T13:51:08;2.75;;;2.10;;
23402;SDS011;11874;48.228;11.684;2023-07-28T13:53:44;3.05;;;1.88;;
23402;SDS011;11874;48.228;11.684;2023-07-28T13:56:34;4.10;;;2.00;;
23402;SDS011;11874;48.228;11.684;2023-07-28T13:59:28;2.60;;;1.83;;
23402;SDS011;11874;48.228;11.684;2023-07-28T14:01:55;2.58;;;1.80;;
23402;SDS011;11874;48.228;11.684;2023-07-28T14:04:24;2.28;;;1.85;;
23402;SDS011;11874;48.228;11.684;2023-07-28T14:06:57;4.00;;;2.50;;
23402;SDS011;11874;48.228;11.684;2023-07-28T14:09:28;3.97;;;2.50;;
23402;SDS011;11874;48.228;11.684;2023-07-28T14:11:56;2.35;;;2.08;;
23402;SDS011;11874;48.228;11.684;2023-07-28T14:14:24;3.83;;;2.05;;
23402;SDS011;11874;48.228;11.684;2023-07-28T14:16:54;2.28;;;1.83;;
23402;SDS011;11874;48.228;11.684;2023-07-28T14:19:23;4.60;;;2.00;;
23402;SDS011;11874;48.228;11.684;2023-07-28T14:21:52;2.55;;;1.95;;
23402;SDS011;11874;48.228;11.684;2023-07-28T14:24:20;2.97;;;2.22;;
23402;SDS011;11874;48.228;11.684;2023-07-28T14:26:48;2.55;;;2.08;;
23402;SDS011;11874;48.228;11.684;2023-07-28T14:29:16;2.65;;;2.20;;
23402;SDS011;11874;48.228;11.684;2023-07-28T14:31:44;3.72;;;3.13;;
23402;SDS011;11874;48.228;11.684;2023-07-28T14:34:13;5.05;;;3.53;;
23402;SDS011;11874;48.228;11.684;2023-07-28T14:36:41;3.40;;;2.67;;
23402;SDS011;11874;48.228;11.684;2023-07-28T14:39:09;2.67;;;2.05;;
23402;SDS011;11874;48.228;11.684;2023-07-28T14:41:37;3.42;;;2.33;;
23402;SDS011;11874;48.228;11.684;2023-07-28T14:44:05;4.18;;;2.15;;
23402;SDS011;11874;48.228;11.684;2023-07-28T14:46:33;3.53;;;2.22;;
23402;SDS011;11874;48.228;11.684;2023-07-28T14:49:01;2.85;;;2.30;;
23402;SDS011;11874;48.228;11.684;2023-07-28T14:51:31;4.57;;;2.08;;
23402;SDS011;11874;48.228;11.684;2023-07-28T14:53:59;4.40;;;2.55;;
23402;SDS011;11874;48.228;11.684;2023-07-28T14:56:27;5.72;;;4.10;;
23402;SDS011;11874;48.228;11.684;2023-07-28T14:58:55;5.50;;;3.78;;
23402;SDS011;11874;48.228;11.684;2023-07-28T15:01:24;6.03;;;2.63;;
23402;SDS011;11874;48.228;11.684;2023-07-28T15:03:52;2.97;;;2.40;;
23402;SDS011;11874;48.228;11.684;2023-07-28T15:06:20;2.95;;;2.10;;
23402;SDS011;11874;48.228;11.684;2023-07-28T15:08:49;3.30;;;2.30;;
23402;SDS011;11874;48.228;11.684;2023-07-28T15:11:18;3.08;;;2.30;;
23402;SDS011;11874;48.228;11.684;2023-07-28T15:13:46;4.55;;;2.50;;
23402;SDS011;11874;48.228;11.684;2023-07-28T15:16:14;6.57;;;2.72;;
23402;SDS011;11874;48.228;11.684;2023-07-28T15:18:42;3.75;;;2.70;;
23402;SDS011;11874;48.228;11.684;2023-07-28T15:21:11;2.72;;;2.30;;
23402;SDS011;11874;48.228;11.684;2023-07-28T15:23:39;3.65;;;2.40;;
23402;SDS011;11874;48.228;11.684;2023-07-28T15:26:09;3.85;;;2.70;;
23402;SDS011;11874;48.228;11.684;2023-07-28T15:28:37;4.97;;;2.28;;
23402;SDS011;11874;48.228;11.684;2023-07-28T15:31:05;3.38;;;2.40;;
23402;SDS011;11874;48.228;11.684;2023-07-28T15:33:33;2.35;;;2.10;;
23402;SDS011;11874;48.228;11.684;2023-07-28T15:36:01;3.38;;;2.70;;
23402;SDS011;11874;48.228;11.684;2023-07-28T15:38:31;3.20;;;2.25;;
23402;SDS011;11874;48.228;11.684;2023-07-28T15:41:01;4.55;;;2.42;;
23402;SDS011;11874;48.228;11.684;2023-07-28T15:43:30;3.85;;;2.20;;
23402;SDS011;11874;48.228;11.684;2023-07-28T15:45:58;2.70;;;2.28;;
23402;SDS011;11874;48.228;11.684;2023-07-28T15:50:58;3.17;;;2.10;;
23402;SDS011;11874;48.228;11.684;2023-07-28T15:53:26;3.25;;;2.13;;
23402;SDS011;11874;48.228;11.684;2023-07-28T15:55:54;2.67;;;2.30;;
23402;SDS011;11874;48.228;11.684;2023-07-28T15:58:23;2.53;;;2.00;;
23402;SDS011;11874;48.228;11.684;2023-07-28T16:00:52;2.97;;;2.45;;
23402;SDS011;11874;48.228;11.684;2023-07-28T16:03:20;2.50;;;2.30;;
23402;SDS011;11874;48.228;11.684;2023-07-28T16:05:48;3.75;;;2.20;;
23402;SDS011;11874;48.228;11.684;2023-07-28T16:08:16;4.57;;;2.00;;
23402;SDS011;11874;48.228;11.684;2023-07-28T16:10:44;3.13;;;2.70;;
23402;SDS011;11874;48.228;11.684;2023-07-28T16:13:12;2.17;;;1.92;;
23402;SDS011;11874;48.228;11.684;2023-07-28T16:15:40;2.67;;;2.08;;
23402;SDS011;11874;48.228;11.684;2023-07-28T16:18:10;2.55;;;2.17;;
23402;SDS011;11874;48.228;11.684;2023-07-28T18:01:34;3.05;;;2.10;;
